sensor_id;sensor_type;location;lat;lon;timestamp;temperature;humidity
50690;DHT22;54375;48.298;11.238;2023-05-07T00:14:33;11.10;93.90
50690;DHT22;54375;48.298;11.238;2023-05-07T00:29:36;11.00;95.20
50690;DHT22;54375;48.298;11.238;2023-05-07T00:44:38;10.90;95.70
50690;DHT22;54375;48.298;11.238;2023-05-07T00:59:41;10.70;95.10
50690;DHT22;54375;48.298;11.238;2023-05-07T01:14:44;10.70;94.70
50690;DHT22;54375;48.298;11.238;2023-05-07T01:29:46;10.60;95.40
50690;DHT22;54375;48.298;11.238;2023-05-07T01:44:48;10.60;95.50
50690;DHT22;54375;48.298;11.238;2023-05-07T01:59:51;10.60;95.00
50690;DHT22;54375;48.298;11.238;2023-05-07T02:14:53;10.60;95.90
50690;DHT22;54375;48.298;11.238;2023-05-07T02:29:56;10.50;96.30
50690;DHT22;54375;48.298;11.238;2023-05-07T02:44:58;10.50;95.70
50690;DHT22;54375;48.298;11.238;2023-05-07T03:00:10;10.40;95.00
50690;DHT22;54375;48.298;11.238;2023-05-07T03:15:12;10.30;95.50
50690;DHT22;54375;48.298;11.238;2023-05-07T03:30:15;10.20;95.30
50690;DHT22;54375;48.298;11.238;2023-05-07T03:45:18;10.00;95.60
50690;DHT22;54375;48.298;11.238;2023-05-07T04:00:21;9.90;95.50
50690;DHT22;54375;48.298;11.238;2023-05-07T04:15:24;9.90;95.80
50690;DHT22;54375;48.298;11.238;2023-05-07T04:30:28;9.80;96.10
50690;DHT22;54375;48.298;11.238;2023-05-07T04:45:30;9.80;97.40
50690;DHT22;54375;48.298;11.238;2023-05-07T05:00:32;9.80;97.30
50690;DHT22;54375;48.298;11.238;2023-05-07T05:15:35;10.00;97.10
50690;DHT22;54375;48.298;11.238;2023-05-07T05:30:38;10.40;97.70
50690;DHT22;54375;48.298;11.238;2023-05-07T05:45:41;10.90;97.50
50690;DHT22;54375;48.298;11.238;2023-05-07T06:00:44;11.70;97.60
50690;DHT22;54375;48.298;11.238;2023-05-07T06:15:46;13.00;96.90
50690;DHT22;54375;48.298;11.238;2023-05-07T06:30:48;14.40;94.50
50690;DHT22;54375;48.298;11.238;2023-05-07T06:45:50;15.80;91.70
50690;DHT22;54375;48.298;11.238;2023-05-07T07:00:52;16.80;90.00
50690;DHT22;54375;48.298;11.238;2023-05-07T07:15:54;17.80;86.20
50690;DHT22;54375;48.298;11.238;2023-05-07T07:30:57;18.90;82.00
50690;DHT22;54375;48.298;11.238;2023-05-07T07:45:59;19.60;78.80
50690;DHT22;54375;48.298;11.238;2023-05-07T08:01:02;20.40;76.30
50690;DHT22;54375;48.298;11.238;2023-05-07T08:16:05;21.20;71.60
50690;DHT22;54375;48.298;11.238;2023-05-07T08:31:07;21.40;69.60
50690;DHT22;54375;48.298;11.238;2023-05-07T08:46:10;22.00;67.80
50690;DHT22;54375;48.298;11.238;2023-05-07T09:01:15;22.80;64.30
50690;DHT22;54375;48.298;11.238;2023-05-07T09:16:17;23.20;61.80
50690;DHT22;54375;48.298;11.238;2023-05-07T09:31:22;23.00;57.50
50690;DHT22;54375;48.298;11.238;2023-05-07T09:46:29;23.70;59.10
50690;DHT22;54375;48.298;11.238;2023-05-07T10:01:33;24.40;57.00
50690;DHT22;54375;48.298;11.238;2023-05-07T10:16:37;24.70;52.50
50690;DHT22;54375;48.298;11.238;2023-05-07T10:31:49;23.30;52.00
50690;DHT22;54375;48.298;11.238;2023-05-07T10:47:05;24.10;49.20
50690;DHT22;54375;48.298;11.238;2023-05-07T11:02:08;24.50;48.80
50690;DHT22;54375;48.298;11.238;2023-05-07T11:17:11;25.30;49.60
50690;DHT22;54375;48.298;11.238;2023-05-07T11:32:14;25.70;47.10
50690;DHT22;54375;48.298;11.238;2023-05-07T11:47:18;26.20;44.60
50690;DHT22;54375;48.298;11.238;2023-05-07T12:02:21;26.30;44.90
50690;DHT22;54375;48.298;11.238;2023-05-07T12:17:24;25.00;47.80
50690;DHT22;54375;48.298;11.238;2023-05-07T12:32:26;25.30;47.90
50690;DHT22;54375;48.298;11.238;2023-05-07T12:47:28;25.90;46.70
50690;DHT22;54375;48.298;11.238;2023-05-07T13:02:33;25.60;46.30
50690;DHT22;54375;48.298;11.238;2023-05-07T13:17:36;25.40;47.30
50690;DHT22;54375;48.298;11.238;2023-05-07T13:32:38;25.20;48.60
50690;DHT22;54375;48.298;11.238;2023-05-07T13:47:40;24.90;50.00
50690;DHT22;54375;48.298;11.238;2023-05-07T14:02:43;24.60;49.70
50690;DHT22;54375;48.298;11.238;2023-05-07T14:17:46;24.40;52.00
50690;DHT22;54375;48.298;11.238;2023-05-07T14:32:49;24.00;51.40
50690;DHT22;54375;48.298;11.238;2023-05-07T14:47:51;23.60;52.50
50690;DHT22;54375;48.298;11.238;2023-05-07T15:02:54;23.60;52.50
50690;DHT22;54375;48.298;11.238;2023-05-07T15:17:58;24.20;50.00
50690;DHT22;54375;48.298;11.238;2023-05-07T15:33:01;23.70;50.00
50690;DHT22;54375;48.298;11.238;2023-05-07T15:48:04;23.30;51.20
50690;DHT22;54375;48.298;11.238;2023-05-07T16:03:07;23.00;51.60
50690;DHT22;54375;48.298;11.238;2023-05-07T16:18:10;22.60;54.70
50690;DHT22;54375;48.298;11.238;2023-05-07T16:33:12;22.10;54.70
50690;DHT22;54375;48.298;11.238;2023-05-07T16:48:14;21.70;55.80
50690;DHT22;54375;48.298;11.238;2023-05-07T17:03:17;21.10;56.60
50690;DHT22;54375;48.298;11.238;2023-05-07T17:18:19;20.70;58.80
50690;DHT22;54375;48.298;11.238;2023-05-07T17:33:22;20.30;61.20
50690;DHT22;54375;48.298;11.238;2023-05-07T17:48:24;19.90;63.70
50690;DHT22;54375;48.298;11.238;2023-05-07T18:03:26;19.40;65.00
50690;DHT22;54375;48.298;11.238;2023-05-07T18:18:28;18.90;66.80
50690;DHT22;54375;48.298;11.238;2023-05-07T18:33:31;18.60;68.90
50690;DHT22;54375;48.298;11.238;2023-05-07T18:48:33;18.30;69.90
50690;DHT22;54375;48.298;11.238;2023-05-07T19:03:35;18.00;71.30
50690;DHT22;54375;48.298;11.238;2023-05-07T19:18:37;17.70;73.60
50690;DHT22;54375;48.298;11.238;2023-05-07T19:33:39;17.50;76.00
50690;DHT22;54375;48.298;11.238;2023-05-07T19:48:42;17.30;77.80
50690;DHT22;54375;48.298;11.238;2023-05-07T20:03:44;17.10;79.60
50690;DHT22;54375;48.298;11.238;2023-05-07T20:18:46;16.90;80.90
50690;DHT22;54375;48.298;11.238;2023-05-07T20:33:48;16.70;82.10
50690;DHT22;54375;48.298;11.238;2023-05-07T20:48:51;16.50;82.10
50690;DHT22;54375;48.298;11.238;2023-05-07T21:03:53;16.30;83.40
50690;DHT22;54375;48.298;11.238;2023-05-07T21:18:55;16.10;84.60
50690;DHT22;54375;48.298;11.238;2023-05-07T21:33:58;16.00;85.10
50690;DHT22;54375;48.298;11.238;2023-05-07T21:49:00;16.00;85.60
50690;DHT22;54375;48.298;11.238;2023-05-07T22:04:03;15.90;85.90
50690;DHT22;54375;48.298;11.238;2023-05-07T22:19:05;15.80;86.60
50690;DHT22;54375;48.298;11.238;2023-05-07T22:34:08;15.70;87.50
50690;DHT22;54375;48.298;11.238;2023-05-07T22:49:10;15.70;87.30
50690;DHT22;54375;48.298;11.238;2023-05-07T23:04:12;15.60;88.70
50690;DHT22;54375;48.298;11.238;2023-05-07T23:19:15;15.50;89.70
50690;DHT22;54375;48.298;11.238;2023-05-07T23:34:17;15.30;90.50
50690;DHT22;54375;48.298;11.238;2023-05-07T23:49:19;15.20;90.60
